createdAt,value
2018-05-01T00:01:53.348Z,5.68
2018-05-01T00:04:22.506Z,5.20
2018-05-01T00:06:52.424Z,5.97
2018-05-01T00:09:21.579Z,5.97
2018-05-01T00:11:50.675Z,5.32
2018-05-01T00:14:19.751Z,5.00
2018-05-01T00:16:48.818Z,5.75
2018-05-01T00:19:17.965Z,4.00
2018-05-01T00:21:47.066Z,4.37
2018-05-01T00:24:16.130Z,3.30
2018-05-01T00:26:45.955Z,7.63
2018-05-01T00:29:15.056Z,4.07
2018-05-01T00:31:44.897Z,3.60
2018-05-01T00:34:14.019Z,4.10
2018-05-01T00:36:43.099Z,3.80
2018-05-01T00:39:13.439Z,3.67
2018-05-01T00:41:43.276Z,3.40
2018-05-01T00:44:13.156Z,3.30
2018-05-01T00:47:10.825Z,3.10
2018-05-01T00:49:39.972Z,4.13
2018-05-01T00:52:09.783Z,3.03
2018-05-01T00:54:38.871Z,2.40
2018-05-01T00:57:07.938Z,3.73
2018-05-01T00:59:37.868Z,2.33
2018-05-01T01:02:06.899Z,2.93
2018-05-01T01:04:36.000Z,2.73
2018-05-01T01:07:05.132Z,2.77
2018-05-01T01:09:34.236Z,2.40
2018-05-01T01:12:03.303Z,2.67
2018-05-01T01:14:32.404Z,2.37
2018-05-01T01:17:01.511Z,3.20
2018-05-01T01:19:30.578Z,2.70
2018-05-01T01:21:59.651Z,2.20
2018-05-01T01:24:29.512Z,2.40
2018-05-01T01:26:58.607Z,5.70
2018-05-01T01:29:28.473Z,2.97
2018-05-01T01:34:58.107Z,2.40
2018-05-01T01:37:26.513Z,2.60
2018-05-01T01:39:54.838Z,2.43
2018-05-01T01:42:23.953Z,2.60
2018-05-01T01:44:52.307Z,1.80
2018-05-01T01:47:20.660Z,2.67
2018-05-01T01:49:49.795Z,2.70
2018-05-01T01:52:18.119Z,3.03
2018-05-01T01:54:46.517Z,2.27
2018-05-01T01:57:14.867Z,2.97
2018-05-01T01:59:43.618Z,2.67
2018-05-01T02:02:11.935Z,2.60
2018-05-01T02:04:40.395Z,2.53
2018-05-01T02:07:08.748Z,2.37
2018-05-01T02:09:37.118Z,2.30
2018-05-01T02:12:05.473Z,2.27
2018-05-01T02:14:33.827Z,2.87
2018-05-01T02:17:02.192Z,3.20
2018-05-01T02:19:30.547Z,2.17
2018-05-01T02:21:58.946Z,2.70
2018-05-01T02:24:27.266Z,2.47
2018-05-01T02:26:55.640Z,2.30
2018-05-01T02:29:24.000Z,2.43
2018-05-01T02:31:52.368Z,2.10
2018-05-01T02:34:21.507Z,2.17
2018-05-01T02:36:49.875Z,2.40
2018-05-01T02:39:18.196Z,2.20
2018-05-01T02:41:46.547Z,1.97
2018-05-01T02:44:14.892Z,3.93
2018-05-01T02:46:43.255Z,3.10
2018-05-01T02:49:11.614Z,3.17
2018-05-01T02:51:40.181Z,5.80
2018-05-01T02:54:08.576Z,2.30
2018-05-01T02:56:36.905Z,2.07
2018-05-01T02:59:05.256Z,2.70
2018-05-01T03:01:33.607Z,3.30
2018-05-01T03:04:02.764Z,2.07
2018-05-01T03:06:31.336Z,2.33
2018-05-01T03:08:59.699Z,2.77
2018-05-01T03:11:28.791Z,1.97
2018-05-01T03:13:57.118Z,2.80
2018-05-01T03:16:26.233Z,1.60
2018-05-01T03:18:54.566Z,1.83
2018-05-01T03:21:22.936Z,1.90
2018-05-01T03:23:51.286Z,2.10
2018-05-01T03:26:19.640Z,2.07
2018-05-01T03:28:48.116Z,2.63
2018-05-01T03:31:17.207Z,2.00
2018-05-01T03:33:45.560Z,1.60
2018-05-01T03:36:13.922Z,1.70
2018-05-01T03:38:42.277Z,1.77
2018-05-01T03:41:11.396Z,2.30
2018-05-01T03:43:39.724Z,1.60
2018-05-01T03:46:08.073Z,2.30
2018-05-01T03:48:37.196Z,1.43
2018-05-01T03:51:05.567Z,1.60
2018-05-01T03:53:34.832Z,1.33
2018-05-01T03:56:03.177Z,1.20
2018-05-01T03:58:32.327Z,1.33
2018-05-01T04:01:00.680Z,1.00
2018-05-01T04:03:29.801Z,1.47
2018-05-01T04:05:58.886Z,1.17
2018-05-01T04:08:27.239Z,1.67
2018-05-01T04:10:55.592Z,1.13
2018-05-01T04:13:24.713Z,2.43
2018-05-01T04:15:53.069Z,1.07
2018-05-01T04:18:21.465Z,0.93
2018-05-01T04:20:49.812Z,1.10
2018-05-01T04:23:18.174Z,1.00
2018-05-01T04:25:47.295Z,0.93
2018-05-01T04:28:15.645Z,1.27
2018-05-01T04:30:44.000Z,1.23
2018-05-01T04:33:12.323Z,0.97
2018-05-01T04:35:40.674Z,1.17
2018-05-01T04:38:09.033Z,0.97
2018-05-01T04:40:37.359Z,1.00
2018-05-01T04:43:05.712Z,1.07
2018-05-01T04:45:34.032Z,1.20
2018-05-01T04:48:03.120Z,3.03
2018-05-01T04:50:31.511Z,0.93
2018-05-01T04:53:00.598Z,0.97
2018-05-01T04:55:28.952Z,1.20
2018-05-01T04:57:57.308Z,1.13
2018-05-01T05:00:26.399Z,2.93
2018-05-01T05:02:54.719Z,1.80
2018-05-01T05:05:23.832Z,1.63
2018-05-01T05:07:52.923Z,1.00
2018-05-01T05:10:21.239Z,1.30
2018-05-01T05:12:50.323Z,1.20
2018-05-01T05:15:18.757Z,1.00
2018-05-01T05:17:47.116Z,1.00
2018-05-01T05:20:16.212Z,0.83
2018-05-01T05:22:44.563Z,1.63
2018-05-01T05:25:12.951Z,1.17
2018-05-01T05:27:41.309Z,1.27
2018-05-01T05:30:10.432Z,0.63
2018-05-01T05:32:39.552Z,0.73
2018-05-01T05:35:07.947Z,0.73
2018-05-01T05:37:37.060Z,0.70
2018-05-01T05:40:05.428Z,0.50
2018-05-01T05:42:34.523Z,0.67
2018-05-01T05:45:02.936Z,0.60
2018-05-01T05:47:32.087Z,0.60
2018-05-01T05:50:00.516Z,0.60
2018-05-01T05:52:28.851Z,0.50
2018-05-01T05:54:57.968Z,1.33
2018-05-01T05:57:26.295Z,0.60
2018-05-01T05:59:54.681Z,12.70
2018-05-01T06:02:23.037Z,0.60
2018-05-01T06:04:52.128Z,0.50
2018-05-01T06:07:20.504Z,0.50
2018-05-01T06:09:48.836Z,0.60
2018-05-01T06:12:17.161Z,2.90
2018-05-01T06:14:45.512Z,0.70
2018-05-01T06:17:14.598Z,3.80
2018-05-01T06:19:43.003Z,1.33
2018-05-01T06:22:12.188Z,0.60
2018-05-01T06:24:40.516Z,0.50
2018-05-01T06:27:09.676Z,0.60
2018-05-01T06:29:38.804Z,0.87
2018-05-01T06:32:07.139Z,0.60
2018-05-01T06:34:36.261Z,1.10
2018-05-01T06:37:04.587Z,0.57
2018-05-01T06:39:33.704Z,1.37
2018-05-01T06:42:02.029Z,0.50
2018-05-01T06:44:31.183Z,2.10
2018-05-01T06:46:59.507Z,0.60
2018-05-01T06:49:27.890Z,0.60
2018-05-01T06:51:56.252Z,0.57
2018-05-01T06:54:24.624Z,0.50
2018-05-01T06:56:53.731Z,0.70
2018-05-01T06:59:22.096Z,0.60
2018-05-01T07:01:50.484Z,0.90
2018-05-01T07:04:19.320Z,0.60
2018-05-01T07:06:47.688Z,0.50
2018-05-01T07:09:16.043Z,0.60
2018-05-01T07:11:44.371Z,0.50
2018-05-01T07:14:13.160Z,0.60
2018-05-01T07:16:41.529Z,0.70
2018-05-01T07:19:09.859Z,0.60
2018-05-01T07:21:38.215Z,0.93
2018-05-01T07:24:06.547Z,0.50
2018-05-01T07:26:34.949Z,0.50
2018-05-01T07:29:03.343Z,0.60
2018-05-01T07:31:31.770Z,2.63
2018-05-01T07:34:00.094Z,0.57
2018-05-01T07:36:28.444Z,0.50
2018-05-01T07:38:57.539Z,0.60
2018-05-01T07:41:25.984Z,0.70
2018-05-01T07:43:55.115Z,0.60
2018-05-01T07:46:23.443Z,0.70
2018-05-01T07:48:52.676Z,0.57
2018-05-01T07:51:21.036Z,0.60
2018-05-01T07:53:49.383Z,0.60
2018-05-01T07:56:17.707Z,0.63
2018-05-01T07:58:46.204Z,0.60
2018-05-01T08:01:14.559Z,0.73
2018-05-01T08:03:42.891Z,0.57
2018-05-01T08:06:11.219Z,0.60
2018-05-01T08:08:40.336Z,0.50
2018-05-01T08:11:08.692Z,0.60
2018-05-01T08:13:37.047Z,0.83
2018-05-01T08:16:05.659Z,0.57
2018-05-01T08:18:34.092Z,0.50
2018-05-01T08:21:02.459Z,1.40
2018-05-01T08:23:30.843Z,0.50
2018-05-01T08:25:59.958Z,0.60
2018-05-01T08:28:28.311Z,0.50
2018-05-01T08:30:56.643Z,0.50
2018-05-01T08:33:24.992Z,0.50
2018-05-01T08:35:53.380Z,0.67
2018-05-01T08:38:21.809Z,0.50
2018-05-01T08:40:50.173Z,0.50
2018-05-01T08:43:18.502Z,0.50
2018-05-01T08:45:46.819Z,0.40
2018-05-01T08:48:15.391Z,1.07
2018-05-01T08:50:43.826Z,0.50
2018-05-01T08:53:12.944Z,1.80
2018-05-01T08:55:42.064Z,0.50
2018-05-01T08:58:11.260Z,0.60
2018-05-01T09:00:40.414Z,0.50
2018-05-01T09:03:08.739Z,0.50
2018-05-01T09:05:37.087Z,0.50
2018-05-01T09:08:05.446Z,2.63
2018-05-01T09:10:34.569Z,0.50
2018-05-01T09:13:03.781Z,0.50
2018-05-01T09:15:32.196Z,3.57
2018-05-01T09:18:00.702Z,0.50
2018-05-01T09:20:28.967Z,0.70
2018-05-01T09:22:57.386Z,0.50
2018-05-01T09:25:25.750Z,0.50
2018-05-01T09:27:54.931Z,0.50
2018-05-01T09:30:23.456Z,0.57
2018-05-01T09:32:52.571Z,0.50
2018-05-01T09:35:20.970Z,0.57
2018-05-01T09:37:49.311Z,1.70
2018-05-01T09:40:17.699Z,0.60
2018-05-01T09:42:46.022Z,0.50
2018-05-01T09:45:14.347Z,1.60
2018-05-01T09:47:42.779Z,0.53
2018-05-01T09:50:11.027Z,0.80
2018-05-01T09:52:40.128Z,0.70
2018-05-01T09:55:09.203Z,0.50
2018-05-01T09:57:38.278Z,0.60
2018-05-01T10:00:07.396Z,1.53
2018-05-01T10:02:36.468Z,0.50
2018-05-01T10:05:05.577Z,0.50
2018-05-01T10:07:35.415Z,0.53
2018-05-01T10:10:04.827Z,1.27
2018-05-01T10:12:33.931Z,0.40
2018-05-01T10:15:03.759Z,0.50
2018-05-01T10:17:33.688Z,0.40
2018-05-01T10:20:03.569Z,0.60
2018-05-01T10:22:32.635Z,0.83
2018-05-01T10:25:02.533Z,0.70
2018-05-01T10:27:31.632Z,1.53
2018-05-01T10:30:00.715Z,0.50
2018-05-01T10:32:29.791Z,3.27
2018-05-01T10:34:59.703Z,0.40
2018-05-01T10:37:28.762Z,0.63
2018-05-01T10:39:57.929Z,0.97
2018-05-01T10:42:27.792Z,0.40
2018-05-01T10:44:56.866Z,1.10
2018-05-01T10:47:26.821Z,0.40
2018-05-01T10:49:55.895Z,1.27
2018-05-01T10:52:24.987Z,0.67
2018-05-01T10:54:54.095Z,0.40
2018-05-01T10:57:23.264Z,0.40
2018-05-01T10:59:52.360Z,0.50
2018-05-01T11:02:22.227Z,0.50
2018-05-01T11:04:51.328Z,0.50
2018-05-01T11:07:20.437Z,0.50
2018-05-01T11:09:49.507Z,0.87
2018-05-01T11:12:18.639Z,0.40
2018-05-01T11:14:47.702Z,0.40
2018-05-01T11:17:16.767Z,0.50
2018-05-01T11:19:45.883Z,0.60
2018-05-01T11:22:15.903Z,0.60
2018-05-01T11:24:45.053Z,0.50
2018-05-01T11:27:14.909Z,0.50
2018-05-01T11:29:44.027Z,0.50
2018-05-01T11:32:13.920Z,0.50
2018-05-01T11:34:42.986Z,0.50
2018-05-01T11:37:12.831Z,0.50
2018-05-01T11:39:41.930Z,0.90
2018-05-01T11:42:11.138Z,1.67
2018-05-01T11:44:40.395Z,2.43
2018-05-01T11:47:09.484Z,0.40
2018-05-01T11:49:38.612Z,0.60
2018-05-01T11:52:07.694Z,1.47
2018-05-01T11:54:36.822Z,0.50
2018-05-01T11:57:06.152Z,0.50
2018-05-01T11:59:35.260Z,0.40
2018-05-01T12:02:04.393Z,1.03
2018-05-01T12:04:33.529Z,0.50
2018-05-01T12:07:02.588Z,0.50
2018-05-01T12:09:31.659Z,0.50
2018-05-01T12:12:01.588Z,0.53
2018-05-01T12:14:30.655Z,0.50
2018-05-01T12:16:59.749Z,0.50
2018-05-01T12:19:28.876Z,0.53
2018-05-01T12:21:58.210Z,1.03
2018-05-01T12:24:27.346Z,0.47
2018-05-01T12:26:56.418Z,0.50
2018-05-01T12:29:25.540Z,0.50
2018-05-01T12:31:54.644Z,0.97
2018-05-01T12:34:23.745Z,0.50
2018-05-01T12:36:52.989Z,0.60
2018-05-01T12:39:21.991Z,0.77
2018-05-01T12:41:51.114Z,0.50
2018-05-01T12:44:20.981Z,0.40
2018-05-01T12:46:50.112Z,0.50
2018-05-01T12:49:19.212Z,0.43
2018-05-01T12:51:48.316Z,0.60
2018-05-01T12:54:17.390Z,0.93
2018-05-01T12:56:47.280Z,0.40
2018-05-01T12:59:16.387Z,0.50
2018-05-01T13:01:45.442Z,0.60
2018-05-01T13:04:14.656Z,0.60
2018-05-01T13:06:43.755Z,0.50
2018-05-01T13:09:13.680Z,0.50
2018-05-01T13:11:43.513Z,1.90
2018-05-01T13:14:13.375Z,0.60
2018-05-01T13:16:42.435Z,0.50
2018-05-01T13:19:11.547Z,0.50
2018-05-01T13:21:40.682Z,0.50
2018-05-01T13:24:09.775Z,0.50
2018-05-01T13:26:39.610Z,0.50
2018-05-01T13:29:09.468Z,0.50
2018-05-01T13:31:38.632Z,1.47
2018-05-01T13:34:07.728Z,0.60
2018-05-01T13:36:36.824Z,0.60
2018-05-01T13:39:05.918Z,0.50
2018-05-01T13:41:35.064Z,0.80
2018-05-01T13:44:04.152Z,0.50
2018-05-01T13:46:33.256Z,0.60
2018-05-01T13:49:02.388Z,0.50
2018-05-01T13:51:31.467Z,2.00
2018-05-01T13:54:00.531Z,0.50
2018-05-01T13:56:30.363Z,1.00
2018-05-01T13:59:00.196Z,0.50
2018-05-01T14:01:30.032Z,0.50
2018-05-01T14:03:59.391Z,0.60
2018-05-01T14:06:28.515Z,0.60
2018-05-01T14:08:58.367Z,0.60
2018-05-01T14:11:28.195Z,0.50
2018-05-01T14:13:58.061Z,0.40
2018-05-01T14:16:27.127Z,0.97
2018-05-01T14:18:56.988Z,0.50
2018-05-01T14:21:26.084Z,0.50
2018-05-01T14:23:55.207Z,0.80
2018-05-01T14:26:24.347Z,2.60
2018-05-01T14:28:53.440Z,0.50
2018-05-01T14:31:22.550Z,0.50
2018-05-01T14:33:51.653Z,0.50
2018-05-01T14:36:20.747Z,0.60
2018-05-01T14:38:49.819Z,1.43
2018-05-01T14:41:18.878Z,0.50
2018-05-01T14:43:48.064Z,2.87
2018-05-01T14:46:17.992Z,0.50
2018-05-01T14:48:47.860Z,0.50
2018-05-01T14:51:16.982Z,0.50
2018-05-01T14:53:46.071Z,0.60
2018-05-01T14:56:15.135Z,0.70
2018-05-01T14:58:44.202Z,0.43
2018-05-01T15:01:13.337Z,0.50
2018-05-01T15:03:42.441Z,0.50
2018-05-01T15:06:12.328Z,0.50
2018-05-01T15:08:41.481Z,0.60
2018-05-01T15:11:10.613Z,2.30
2018-05-01T15:13:39.716Z,0.77
2018-05-01T15:16:08.846Z,0.70
2018-05-01T15:18:38.764Z,0.70
2018-05-01T15:21:07.830Z,0.50
2018-05-01T15:23:36.959Z,0.70
2018-05-01T15:26:06.027Z,0.60
2018-05-01T15:28:35.173Z,0.60
2018-05-01T15:31:04.243Z,0.50
2018-05-01T15:33:34.147Z,0.53
2018-05-01T15:36:03.240Z,0.50
2018-05-01T15:38:32.344Z,0.50
2018-05-01T15:41:01.459Z,0.60
2018-05-01T15:43:31.326Z,1.50
2018-05-01T15:46:01.155Z,0.50
2018-05-01T15:48:31.242Z,0.60
2018-05-01T15:51:00.395Z,0.60
2018-05-01T15:53:30.304Z,0.70
2018-05-01T15:55:59.366Z,0.60
2018-05-01T15:58:28.436Z,0.50
2018-05-01T16:00:57.535Z,0.50
2018-05-01T16:03:26.595Z,5.13
2018-05-01T16:05:55.716Z,0.90
2018-05-01T16:08:24.783Z,0.50
2018-05-01T16:10:55.104Z,0.60
2018-05-01T16:13:24.253Z,0.70
2018-05-01T16:15:53.332Z,0.80
2018-05-01T16:18:22.402Z,0.57
2018-05-01T16:20:51.463Z,0.70
2018-05-01T16:23:21.420Z,0.50
2018-05-01T16:25:50.516Z,0.50
2018-05-01T16:28:19.616Z,0.63
2018-05-01T16:30:49.527Z,0.60
2018-05-01T16:33:18.637Z,2.83
2018-05-01T16:35:47.715Z,3.17
2018-05-01T16:38:16.811Z,1.17
2018-05-01T16:40:45.939Z,0.50
2018-05-01T16:43:15.037Z,0.60
2018-05-01T16:45:44.259Z,0.80
2018-05-01T16:48:13.363Z,0.60
2018-05-01T16:50:42.495Z,0.60
2018-05-01T16:53:11.651Z,0.53
2018-05-01T16:55:40.831Z,0.60
2018-05-01T16:58:09.949Z,0.77
2018-05-01T17:00:39.823Z,1.83
2018-05-01T17:03:08.909Z,0.50
2018-05-01T17:05:38.747Z,0.90
2018-05-01T17:08:07.857Z,0.77
2018-05-01T17:10:36.974Z,2.00
2018-05-01T17:13:06.052Z,0.70
2018-05-01T17:15:36.008Z,0.87
2018-05-01T17:18:05.032Z,0.60
2018-05-01T17:20:34.104Z,0.60
2018-05-01T17:23:04.004Z,0.87
2018-05-01T17:25:33.136Z,1.70
2018-05-01T17:28:03.103Z,0.60
2018-05-01T17:30:32.156Z,0.87
2018-05-01T17:33:01.267Z,0.60
2018-05-01T17:35:30.376Z,1.17
2018-05-01T17:37:59.458Z,2.00
2018-05-01T17:40:28.560Z,0.83
2018-05-01T17:42:57.708Z,0.70
2018-05-01T17:45:26.792Z,0.70
2018-05-01T17:47:55.896Z,0.60
2018-05-01T17:50:24.969Z,1.10
2018-05-01T17:52:54.856Z,0.80
2018-05-01T17:55:23.935Z,5.70
2018-05-01T17:57:53.139Z,0.73
2018-05-01T18:00:22.211Z,0.70
2018-05-01T18:02:51.429Z,1.33
2018-05-01T18:05:21.303Z,0.60
2018-05-01T18:07:50.441Z,1.67
2018-05-01T18:10:19.564Z,0.60
2018-05-01T18:12:48.738Z,0.73
2018-05-01T18:15:17.853Z,1.17
2018-05-01T18:17:47.409Z,0.83
2018-05-01T18:20:16.504Z,2.47
2018-05-01T18:22:45.580Z,1.00
2018-05-01T18:25:14.687Z,1.15
2018-05-01T18:27:43.800Z,0.70
2018-05-01T18:30:12.900Z,0.60
2018-05-01T18:32:41.981Z,0.80
2018-05-01T18:35:11.111Z,0.70
2018-05-01T18:37:40.183Z,1.30
2018-05-01T18:40:09.491Z,0.90
2018-05-01T18:42:39.327Z,0.80
2018-05-01T18:45:08.440Z,0.70
2018-05-01T18:47:37.520Z,2.43
2018-05-01T18:50:06.626Z,0.80
2018-05-01T18:52:35.731Z,0.87
2018-05-01T18:55:04.844Z,1.30
2018-05-01T18:57:33.988Z,0.70
2018-05-01T19:00:03.063Z,0.80
2018-05-01T19:02:32.170Z,0.80
2018-05-01T19:05:01.290Z,1.00
2018-05-01T19:07:31.176Z,0.80
2018-05-01T19:10:01.017Z,1.33
2018-05-01T19:12:30.093Z,1.23
2018-05-01T19:14:59.238Z,0.60
2018-05-01T19:17:28.387Z,1.00
2018-05-01T19:19:57.624Z,1.17
2018-05-01T19:22:26.684Z,1.20
2018-05-01T19:24:55.793Z,1.93
2018-05-01T19:27:24.902Z,2.40
2018-05-01T19:29:54.059Z,0.90
2018-05-01T19:32:23.178Z,1.00
2018-05-01T19:34:52.358Z,1.10
2018-05-01T19:37:21.428Z,4.43
2018-05-01T19:39:51.307Z,18.07
2018-05-01T19:42:20.430Z,18.17
2018-05-01T19:44:50.286Z,7.03
2018-05-01T19:47:20.150Z,18.23
2018-05-01T19:49:50.172Z,12.30
2018-05-01T19:52:19.276Z,5.63
2018-05-01T19:54:49.116Z,4.43
2018-05-01T19:57:18.255Z,3.70
2018-05-01T19:59:47.645Z,2.20
2018-05-01T20:02:16.724Z,2.20
2018-05-01T20:04:46.676Z,2.40
2018-05-01T20:07:15.811Z,3.60
2018-05-01T20:09:44.903Z,3.30
2018-05-01T20:12:14.038Z,4.47
2018-05-01T20:14:43.140Z,1.77
2018-05-01T20:17:12.400Z,1.70
2018-05-01T20:19:41.475Z,1.58
2018-05-01T20:22:10.542Z,1.65
2018-05-01T20:24:40.384Z,1.50
2018-05-01T20:27:09.463Z,2.45
2018-05-01T20:29:39.321Z,1.90
2018-05-01T20:32:08.461Z,2.12
2018-05-01T20:34:38.303Z,1.37
2018-05-01T20:37:07.400Z,1.95
2018-05-01T20:39:36.723Z,3.15
2018-05-01T20:42:05.831Z,1.52
2018-05-01T20:44:34.932Z,2.35
2018-05-01T20:47:04.014Z,1.37
2018-05-01T20:49:33.121Z,1.58
2018-05-01T20:52:02.208Z,1.33
2018-05-01T20:54:32.076Z,1.48
2018-05-01T20:57:01.439Z,2.83
2018-05-01T20:59:30.536Z,5.40
2018-05-01T21:01:59.608Z,1.20
2018-05-01T21:04:28.671Z,1.55
2018-05-01T21:06:57.759Z,1.55
2018-05-01T21:09:26.823Z,1.87
2018-05-01T21:11:55.976Z,2.20
2018-05-01T21:14:25.076Z,2.00
2018-05-01T21:16:54.289Z,1.85
2018-05-01T21:19:24.105Z,2.80
2018-05-01T21:21:53.233Z,1.80
2018-05-01T21:24:22.303Z,2.33
2018-05-01T21:26:51.400Z,2.55
2018-05-01T21:29:21.227Z,2.15
2018-05-01T21:31:51.123Z,2.08
2018-05-01T21:34:20.183Z,8.15
2018-05-01T21:36:50.002Z,1.87
2018-05-01T21:39:19.880Z,4.32
2018-05-01T21:41:48.964Z,3.20
2018-05-01T21:44:18.109Z,2.10
2018-05-01T21:46:47.163Z,1.75
2018-05-01T21:49:17.012Z,4.60
2018-05-01T21:51:46.103Z,1.77
2018-05-01T21:54:15.984Z,2.37
2018-05-01T21:56:45.078Z,5.53
2018-05-01T21:59:14.533Z,4.65
2018-05-01T22:01:43.593Z,3.83
2018-05-01T22:04:12.660Z,2.95
2018-05-01T22:06:41.715Z,3.10
2018-05-01T22:09:10.857Z,3.22
2018-05-01T22:11:39.944Z,2.80
2018-05-01T22:14:09.008Z,2.12
2018-05-01T22:16:38.835Z,2.47
2018-05-01T22:19:08.691Z,2.05
2018-05-01T22:21:37.781Z,2.17
2018-05-01T22:24:07.636Z,2.30
2018-05-01T22:26:36.729Z,2.97
2018-05-01T22:29:06.556Z,2.40
2018-05-01T22:31:36.369Z,2.17
2018-05-01T22:34:06.243Z,2.53
2018-05-01T22:36:35.331Z,2.33
2018-05-01T22:39:04.468Z,3.12
2018-05-01T22:41:33.543Z,5.50
2018-05-01T22:44:03.422Z,2.22
2018-05-01T22:46:32.486Z,2.75
2018-05-01T22:49:02.560Z,3.20
2018-05-01T22:51:31.673Z,2.87
2018-05-01T22:54:00.860Z,2.67
2018-05-01T22:56:29.984Z,2.40
2018-05-01T22:58:59.097Z,3.37
2018-05-01T23:01:28.218Z,2.87
2018-05-01T23:03:57.270Z,2.60
2018-05-01T23:06:27.156Z,2.83
2018-05-01T23:08:56.215Z,2.35
2018-05-01T23:11:26.061Z,3.15
2018-05-01T23:13:55.154Z,2.70
2018-05-01T23:16:24.986Z,2.28
2018-05-01T23:18:54.840Z,2.45
2018-05-01T23:21:24.072Z,1.65
2018-05-01T23:23:53.127Z,2.37
2018-05-01T23:26:23.862Z,1.92
2018-05-01T23:28:52.923Z,1.90
2018-05-01T23:31:21.992Z,1.92
2018-05-01T23:33:51.913Z,1.95
2018-05-01T23:36:20.943Z,2.20
2018-05-01T23:38:50.055Z,2.92
2018-05-01T23:41:19.871Z,1.90
2018-05-01T23:43:49.682Z,2.12
2018-05-01T23:46:18.759Z,2.92
2018-05-01T23:48:47.847Z,3.62
2018-05-01T23:51:16.931Z,2.60
2018-05-01T23:53:46.772Z,3.55
2018-05-01T23:56:15.861Z,2.53
2018-05-01T23:58:45.720Z,2.65
